sensor_id;sensor_type;location;lat;lon;timestamp;pressure;altitude;pressure_sealevel;temperature;humidity
61014;BME280;46899;47.542;19.082;2023-05-02T00:00:28;100543.00;;;10.78;85.74
61014;BME280;46899;47.542;19.082;2023-05-02T00:03:32;100539.41;;;10.82;85.44
61014;BME280;46899;47.542;19.082;2023-05-02T00:06:35;100533.94;;;10.90;85.03
61014;BME280;46899;47.542;19.082;2023-05-02T00:09:38;100534.09;;;10.85;84.81
61014;BME280;46899;47.542;19.082;2023-05-02T00:12:41;100540.91;;;10.89;84.36
61014;BME280;46899;47.542;19.082;2023-05-02T00:15:43;100531.87;;;10.99;82.41
61014;BME280;46899;47.542;19.082;2023-05-02T00:18:45;100531.97;;;10.96;81.61
61014;BME280;46899;47.542;19.082;2023-05-02T00:21:49;100539.56;;;11.02;82.51
61014;BME280;46899;47.542;19.082;2023-05-02T00:24:55;100529.94;;;11.05;81.08
61014;BME280;46899;47.542;19.082;2023-05-02T00:27:58;100524.03;;;11.26;76.52
61014;BME280;46899;47.542;19.082;2023-05-02T00:31:03;100532.94;;;11.43;78.14
61014;BME280;46899;47.542;19.082;2023-05-02T00:34:06;100533.97;;;11.39;78.00
61014;BME280;46899;47.542;19.082;2023-05-02T00:37:08;100533.91;;;11.41;77.11
61014;BME280;46899;47.542;19.082;2023-05-02T00:40:11;100539.00;;;11.44;76.93
61014;BME280;46899;47.542;19.082;2023-05-02T00:43:14;100532.88;;;11.45;74.81
61014;BME280;46899;47.542;19.082;2023-05-02T00:46:17;100525.91;;;11.45;75.73
61014;BME280;46899;47.542;19.082;2023-05-02T00:49:19;100533.62;;;11.48;76.08
61014;BME280;46899;47.542;19.082;2023-05-02T00:52:22;100540.16;;;11.60;74.51
61014;BME280;46899;47.542;19.082;2023-05-02T00:55:25;100541.56;;;11.70;75.73
61014;BME280;46899;47.542;19.082;2023-05-02T00:58:28;100529.56;;;11.64;75.10
61014;BME280;46899;47.542;19.082;2023-05-02T01:08:07;100535.44;;;11.46;76.91
61014;BME280;46899;47.542;19.082;2023-05-02T01:11:16;100536.97;;;11.52;76.85
61014;BME280;46899;47.542;19.082;2023-05-02T01:14:21;100540.06;;;11.38;77.11
61014;BME280;46899;47.542;19.082;2023-05-02T01:17:26;100542.03;;;11.32;78.40
61014;BME280;46899;47.542;19.082;2023-05-02T01:20:30;100537.25;;;11.44;75.55
61014;BME280;46899;47.542;19.082;2023-05-02T01:23:45;100538.59;;;11.54;75.97
61014;BME280;46899;47.542;19.082;2023-05-02T01:26:57;100534.72;;;11.66;75.74
61014;BME280;46899;47.542;19.082;2023-05-02T01:30:01;100533.47;;;11.53;75.11
61014;BME280;46899;47.542;19.082;2023-05-02T01:33:04;100528.34;;;11.50;75.03
61014;BME280;46899;47.542;19.082;2023-05-02T01:36:07;100531.66;;;11.55;76.28
61014;BME280;46899;47.542;19.082;2023-05-02T01:39:13;100530.78;;;11.54;75.40
61014;BME280;46899;47.542;19.082;2023-05-02T01:42:17;100527.19;;;11.58;75.73
61014;BME280;46899;47.542;19.082;2023-05-02T01:45:21;100530.47;;;11.63;76.70
61014;BME280;46899;47.542;19.082;2023-05-02T01:48:26;100526.78;;;11.46;76.26
61014;BME280;46899;47.542;19.082;2023-05-02T01:51:29;100521.78;;;11.40;76.99
61014;BME280;46899;47.542;19.082;2023-05-02T01:54:34;100530.94;;;11.51;73.18
61014;BME280;46899;47.542;19.082;2023-05-02T01:57:38;100525.19;;;11.42;75.51
61014;BME280;46899;47.542;19.082;2023-05-02T02:00:43;100523.16;;;11.50;72.98
61014;BME280;46899;47.542;19.082;2023-05-02T02:03:47;100516.34;;;11.46;74.03
61014;BME280;46899;47.542;19.082;2023-05-02T02:06:51;100525.37;;;11.36;74.80
61014;BME280;46899;47.542;19.082;2023-05-02T02:09:55;100514.13;;;11.35;75.66
61014;BME280;46899;47.542;19.082;2023-05-02T02:12:59;100515.72;;;11.39;75.59
61014;BME280;46899;47.542;19.082;2023-05-02T02:16:04;100509.38;;;11.23;75.74
61014;BME280;46899;47.542;19.082;2023-05-02T02:19:09;100517.34;;;11.19;74.52
61014;BME280;46899;47.542;19.082;2023-05-02T02:22:12;100517.12;;;11.25;76.52
61014;BME280;46899;47.542;19.082;2023-05-02T02:25:16;100510.50;;;11.15;76.47
61014;BME280;46899;47.542;19.082;2023-05-02T02:28:19;100510.22;;;10.97;77.56
61014;BME280;46899;47.542;19.082;2023-05-02T02:31:22;100509.56;;;10.92;78.29
61014;BME280;46899;47.542;19.082;2023-05-02T02:34:27;100505.63;;;10.81;79.09
61014;BME280;46899;47.542;19.082;2023-05-02T02:37:30;100512.72;;;10.76;79.58
61014;BME280;46899;47.542;19.082;2023-05-02T02:40:43;100516.47;;;10.67;79.96
61014;BME280;46899;47.542;19.082;2023-05-02T02:50:26;100509.34;;;10.46;80.97
61014;BME280;46899;47.542;19.082;2023-05-02T02:56:44;100517.44;;;10.37;82.04
61014;BME280;46899;47.542;19.082;2023-05-02T02:59:54;100512.63;;;10.25;82.40
61014;BME280;46899;47.542;19.082;2023-05-02T03:02:59;100515.16;;;10.28;83.43
61014;BME280;46899;47.542;19.082;2023-05-02T03:06:02;100517.22;;;10.17;85.95
61014;BME280;46899;47.542;19.082;2023-05-02T03:09:10;100517.56;;;10.05;86.10
61014;BME280;46899;47.542;19.082;2023-05-02T03:12:15;100523.62;;;10.05;86.86
61014;BME280;46899;47.542;19.082;2023-05-02T03:18:21;100522.53;;;9.83;88.84
61014;BME280;46899;47.542;19.082;2023-05-02T03:21:24;100527.06;;;9.77;89.49
61014;BME280;46899;47.542;19.082;2023-05-02T03:24:27;100524.47;;;9.77;90.12
61014;BME280;46899;47.542;19.082;2023-05-02T03:27:30;100525.53;;;9.70;91.19
61014;BME280;46899;47.542;19.082;2023-05-02T03:30:33;100523.84;;;9.69;91.54
61014;BME280;46899;47.542;19.082;2023-05-02T03:33:37;100530.66;;;9.73;91.14
61014;BME280;46899;47.542;19.082;2023-05-02T03:36:39;100526.53;;;9.66;92.18
61014;BME280;46899;47.542;19.082;2023-05-02T03:39:42;100532.69;;;9.61;92.50
61014;BME280;46899;47.542;19.082;2023-05-02T03:42:45;100532.63;;;9.64;92.86
61014;BME280;46899;47.542;19.082;2023-05-02T03:45:50;100536.00;;;9.67;92.74
61014;BME280;46899;47.542;19.082;2023-05-02T03:48:54;100535.22;;;9.64;92.70
61014;BME280;46899;47.542;19.082;2023-05-02T03:51:58;100541.16;;;9.68;92.85
61014;BME280;46899;47.542;19.082;2023-05-02T03:55:01;100534.28;;;9.67;93.38
61014;BME280;46899;47.542;19.082;2023-05-02T03:58:04;100543.59;;;9.74;93.25
61014;BME280;46899;47.542;19.082;2023-05-02T04:01:12;100547.00;;;9.76;93.00
61014;BME280;46899;47.542;19.082;2023-05-02T04:04:15;100552.88;;;9.83;92.72
61014;BME280;46899;47.542;19.082;2023-05-02T04:07:19;100549.13;;;9.93;91.99
61014;BME280;46899;47.542;19.082;2023-05-02T04:10:24;100553.31;;;9.97;91.75
61014;BME280;46899;47.542;19.082;2023-05-02T04:13:27;100557.44;;;10.04;90.97
61014;BME280;46899;47.542;19.082;2023-05-02T04:16:31;100557.19;;;10.13;91.24
61014;BME280;46899;47.542;19.082;2023-05-02T04:19:34;100550.75;;;10.26;88.40
61014;BME280;46899;47.542;19.082;2023-05-02T04:22:38;100546.88;;;10.39;87.59
61014;BME280;46899;47.542;19.082;2023-05-02T04:25:53;100553.69;;;10.43;89.23
61014;BME280;46899;47.542;19.082;2023-05-02T04:28:56;100554.19;;;10.54;88.39
61014;BME280;46899;47.542;19.082;2023-05-02T04:31:59;100560.81;;;10.64;87.56
61014;BME280;46899;47.542;19.082;2023-05-02T04:35:02;100567.31;;;10.77;86.00
61014;BME280;46899;47.542;19.082;2023-05-02T04:38:04;100569.53;;;10.89;85.39
61014;BME280;46899;47.542;19.082;2023-05-02T04:41:14;100567.09;;;11.10;82.78
61014;BME280;46899;47.542;19.082;2023-05-02T04:44:20;100564.00;;;11.25;80.16
61014;BME280;46899;47.542;19.082;2023-05-02T04:47:23;100566.97;;;11.39;78.50
61014;BME280;46899;47.542;19.082;2023-05-02T04:50:25;100571.53;;;11.57;77.30
61014;BME280;46899;47.542;19.082;2023-05-02T04:53:29;100572.13;;;11.65;80.07
61014;BME280;46899;47.542;19.082;2023-05-02T04:56:32;100577.91;;;11.75;77.74
61014;BME280;46899;47.542;19.082;2023-05-02T04:59:35;100575.81;;;11.84;77.25
61014;BME280;46899;47.542;19.082;2023-05-02T05:02:38;100578.31;;;12.10;75.76
61014;BME280;46899;47.542;19.082;2023-05-02T05:05:42;100584.28;;;12.35;75.53
61014;BME280;46899;47.542;19.082;2023-05-02T05:08:45;100580.56;;;12.63;73.18
61014;BME280;46899;47.542;19.082;2023-05-02T05:11:49;100581.91;;;12.73;72.59
61014;BME280;46899;47.542;19.082;2023-05-02T05:14:51;100583.97;;;12.86;71.46
61014;BME280;46899;47.542;19.082;2023-05-02T05:17:54;100584.94;;;12.84;71.73
61014;BME280;46899;47.542;19.082;2023-05-02T05:20:58;100590.84;;;13.11;70.74
61014;BME280;46899;47.542;19.082;2023-05-02T05:24:02;100583.41;;;13.22;70.71
61014;BME280;46899;47.542;19.082;2023-05-02T05:27:05;100585.31;;;13.38;69.42
61014;BME280;46899;47.542;19.082;2023-05-02T05:30:08;100594.44;;;13.68;68.60
61014;BME280;46899;47.542;19.082;2023-05-02T05:33:12;100597.88;;;13.89;67.62
61014;BME280;46899;47.542;19.082;2023-05-02T05:36:15;100596.94;;;14.10;66.97
61014;BME280;46899;47.542;19.082;2023-05-02T05:39:18;100592.97;;;14.39;65.03
61014;BME280;46899;47.542;19.082;2023-05-02T05:42:22;100604.34;;;14.75;64.62
61014;BME280;46899;47.542;19.082;2023-05-02T05:45:25;100600.53;;;14.99;62.88
61014;BME280;46899;47.542;19.082;2023-05-02T05:48:28;100604.69;;;15.03;61.75
61014;BME280;46899;47.542;19.082;2023-05-02T05:51:32;100605.78;;;15.34;61.06
61014;BME280;46899;47.542;19.082;2023-05-02T05:54:35;100613.37;;;15.57;59.81
61014;BME280;46899;47.542;19.082;2023-05-02T05:57:37;100612.09;;;15.81;59.66
61014;BME280;46899;47.542;19.082;2023-05-02T06:00:41;100618.31;;;16.28;58.15
61014;BME280;46899;47.542;19.082;2023-05-02T06:03:44;100605.50;;;16.55;56.95
61014;BME280;46899;47.542;19.082;2023-05-02T06:06:49;100615.59;;;16.63;55.82
61014;BME280;46899;47.542;19.082;2023-05-02T06:09:53;100622.56;;;16.93;55.48
61014;BME280;46899;47.542;19.082;2023-05-02T06:12:56;100613.59;;;16.82;55.05
61014;BME280;46899;47.542;19.082;2023-05-02T06:15:59;100621.62;;;17.40;53.28
61014;BME280;46899;47.542;19.082;2023-05-02T06:19:04;100612.84;;;17.25;53.94
61014;BME280;46899;47.542;19.082;2023-05-02T06:22:06;100616.06;;;17.60;53.55
61014;BME280;46899;47.542;19.082;2023-05-02T06:25:09;100618.25;;;18.38;51.17
61014;BME280;46899;47.542;19.082;2023-05-02T06:28:11;100621.34;;;18.59;49.76
61014;BME280;46899;47.542;19.082;2023-05-02T06:31:14;100630.66;;;18.64;48.50
61014;BME280;46899;47.542;19.082;2023-05-02T06:34:17;100622.91;;;18.75;48.24
61014;BME280;46899;47.542;19.082;2023-05-02T06:37:20;100621.25;;;19.13;46.93
61014;BME280;46899;47.542;19.082;2023-05-02T06:40:23;100619.19;;;20.08;45.71
61014;BME280;46899;47.542;19.082;2023-05-02T06:43:25;100617.66;;;21.02;42.98
61014;BME280;46899;47.542;19.082;2023-05-02T06:46:28;100624.03;;;22.37;39.96
61014;BME280;46899;47.542;19.082;2023-05-02T06:49:32;100618.66;;;24.77;35.20
61014;BME280;46899;47.542;19.082;2023-05-02T06:52:37;100630.31;;;27.35;30.15
61014;BME280;46899;47.542;19.082;2023-05-02T06:55:39;100630.19;;;28.65;27.83
61014;BME280;46899;47.542;19.082;2023-05-02T06:58:42;100638.50;;;30.63;24.88
61014;BME280;46899;47.542;19.082;2023-05-02T07:01:45;100636.22;;;32.90;22.47
61014;BME280;46899;47.542;19.082;2023-05-02T07:04:47;100629.81;;;31.15;23.76
61014;BME280;46899;47.542;19.082;2023-05-02T07:07:50;100632.97;;;30.95;24.07
61014;BME280;46899;47.542;19.082;2023-05-02T07:10:53;100621.38;;;31.63;23.28
61014;BME280;46899;47.542;19.082;2023-05-02T07:13:55;100623.47;;;33.62;20.81
61014;BME280;46899;47.542;19.082;2023-05-02T07:16:58;100626.03;;;34.86;19.97
61014;BME280;46899;47.542;19.082;2023-05-02T07:20:00;100629.28;;;35.16;19.79
61014;BME280;46899;47.542;19.082;2023-05-02T07:23:04;100621.91;;;34.90;19.32
61014;BME280;46899;47.542;19.082;2023-05-02T07:26:06;100625.31;;;35.32;19.25
61014;BME280;46899;47.542;19.082;2023-05-02T07:29:09;100622.44;;;35.79;18.82
61014;BME280;46899;47.542;19.082;2023-05-02T07:32:12;100622.44;;;35.53;18.48
61014;BME280;46899;47.542;19.082;2023-05-02T07:35:14;100619.03;;;36.16;17.89
61014;BME280;46899;47.542;19.082;2023-05-02T07:38:17;100622.66;;;35.51;18.03
61014;BME280;46899;47.542;19.082;2023-05-02T07:41:20;100620.13;;;35.76;18.05
61014;BME280;46899;47.542;19.082;2023-05-02T07:44:23;100623.78;;;36.85;17.33
61014;BME280;46899;47.542;19.082;2023-05-02T07:47:25;100620.53;;;36.06;17.68
61014;BME280;46899;47.542;19.082;2023-05-02T07:50:28;100624.84;;;37.96;16.48
61014;BME280;46899;47.542;19.082;2023-05-02T07:53:31;100637.16;;;35.04;18.71
61014;BME280;46899;47.542;19.082;2023-05-02T07:56:34;100628.62;;;33.36;20.14
61014;BME280;46899;47.542;19.082;2023-05-02T07:59:37;100631.19;;;30.49;23.55
61014;BME280;46899;47.542;19.082;2023-05-02T08:02:40;100628.59;;;32.94;21.05
61014;BME280;46899;47.542;19.082;2023-05-02T08:05:44;100625.91;;;35.08;19.22
61014;BME280;46899;47.542;19.082;2023-05-02T08:08:47;100629.19;;;34.83;19.61
61014;BME280;46899;47.542;19.082;2023-05-02T08:11:49;100623.78;;;34.90;19.27
61014;BME280;46899;47.542;19.082;2023-05-02T08:14:52;100625.53;;;35.37;18.66
61014;BME280;46899;47.542;19.082;2023-05-02T08:17:55;100630.13;;;35.43;18.79
61014;BME280;46899;47.542;19.082;2023-05-02T08:20:57;100628.72;;;34.73;19.39
61014;BME280;46899;47.542;19.082;2023-05-02T08:24:00;100624.47;;;32.98;21.06
61014;BME280;46899;47.542;19.082;2023-05-02T08:27:02;100622.81;;;31.28;22.99
61014;BME280;46899;47.542;19.082;2023-05-02T08:30:05;100623.13;;;30.80;23.56
61014;BME280;46899;47.542;19.082;2023-05-02T08:33:09;100623.16;;;31.02;23.37
61014;BME280;46899;47.542;19.082;2023-05-02T08:36:13;100614.72;;;29.17;25.46
61014;BME280;46899;47.542;19.082;2023-05-02T08:39:15;100617.56;;;31.35;23.24
61014;BME280;46899;47.542;19.082;2023-05-02T08:42:18;100614.34;;;31.76;22.67
61014;BME280;46899;47.542;19.082;2023-05-02T08:45:24;100617.56;;;31.72;22.60
61014;BME280;46899;47.542;19.082;2023-05-02T08:48:26;100613.94;;;30.27;24.05
61014;BME280;46899;47.542;19.082;2023-05-02T08:51:29;100601.16;;;29.91;25.08
61014;BME280;46899;47.542;19.082;2023-05-02T08:54:35;100596.37;;;28.64;26.40
61014;BME280;46899;47.542;19.082;2023-05-02T08:57:39;100598.84;;;29.39;25.62
61014;BME280;46899;47.542;19.082;2023-05-02T09:00:42;100600.50;;;28.58;26.96
61014;BME280;46899;47.542;19.082;2023-05-02T09:03:46;100605.12;;;27.55;28.33
61014;BME280;46899;47.542;19.082;2023-05-02T09:06:50;100594.59;;;26.83;29.34
61014;BME280;46899;47.542;19.082;2023-05-02T09:09:52;100594.91;;;26.80;29.61
61014;BME280;46899;47.542;19.082;2023-05-02T09:12:55;100593.56;;;26.66;29.75
61014;BME280;46899;47.542;19.082;2023-05-02T09:16:01;100589.97;;;26.58;29.84
61014;BME280;46899;47.542;19.082;2023-05-02T09:19:04;100580.16;;;25.85;30.82
61014;BME280;46899;47.542;19.082;2023-05-02T09:22:07;100594.72;;;25.15;31.83
61014;BME280;46899;47.542;19.082;2023-05-02T09:25:09;100583.34;;;25.23;31.94
61014;BME280;46899;47.542;19.082;2023-05-02T09:28:12;100580.56;;;25.53;31.60
61014;BME280;46899;47.542;19.082;2023-05-02T09:31:15;100586.56;;;26.11;31.24
61014;BME280;46899;47.542;19.082;2023-05-02T09:34:33;100584.69;;;26.21;30.53
61014;BME280;46899;47.542;19.082;2023-05-02T09:37:36;100575.63;;;27.03;30.27
61014;BME280;46899;47.542;19.082;2023-05-02T09:40:38;100588.66;;;26.44;30.42
61014;BME280;46899;47.542;19.082;2023-05-02T09:43:55;100591.00;;;25.73;30.51
61014;BME280;46899;47.542;19.082;2023-05-02T09:46:58;100586.31;;;25.48;31.17
61014;BME280;46899;47.542;19.082;2023-05-02T09:50:03;100581.06;;;26.03;30.99
61014;BME280;46899;47.542;19.082;2023-05-02T09:53:07;100576.53;;;26.50;30.55
61014;BME280;46899;47.542;19.082;2023-05-02T09:56:11;100578.81;;;26.62;29.64
61014;BME280;46899;47.542;19.082;2023-05-02T09:59:17;100577.16;;;26.07;30.19
61014;BME280;46899;47.542;19.082;2023-05-02T10:02:20;100575.72;;;26.03;29.95
61014;BME280;46899;47.542;19.082;2023-05-02T10:05:23;100571.72;;;26.53;30.17
61014;BME280;46899;47.542;19.082;2023-05-02T10:08:26;100568.59;;;26.58;29.73
61014;BME280;46899;47.542;19.082;2023-05-02T10:11:30;100564.84;;;26.33;30.02
61014;BME280;46899;47.542;19.082;2023-05-02T10:14:38;100570.88;;;26.53;30.21
61014;BME280;46899;47.542;19.082;2023-05-02T10:17:42;100569.88;;;26.81;29.38
61014;BME280;46899;47.542;19.082;2023-05-02T10:20:56;100558.47;;;26.61;30.25
61014;BME280;46899;47.542;19.082;2023-05-02T10:24:00;100557.06;;;26.57;29.65
61014;BME280;46899;47.542;19.082;2023-05-02T10:27:04;100547.47;;;26.10;30.25
61014;BME280;46899;47.542;19.082;2023-05-02T10:30:08;100561.66;;;26.47;30.34
61014;BME280;46899;47.542;19.082;2023-05-02T10:33:12;100541.78;;;26.32;30.17
61014;BME280;46899;47.542;19.082;2023-05-02T10:36:15;100555.91;;;26.15;29.88
61014;BME280;46899;47.542;19.082;2023-05-02T10:39:21;100553.81;;;26.09;30.28
61014;BME280;46899;47.542;19.082;2023-05-02T10:42:27;100553.06;;;26.26;30.41
61014;BME280;46899;47.542;19.082;2023-05-02T10:48:33;100566.41;;;26.26;30.90
61014;BME280;46899;47.542;19.082;2023-05-02T10:51:36;100558.25;;;26.27;30.42
61014;BME280;46899;47.542;19.082;2023-05-02T10:54:39;100553.81;;;26.09;30.82
61014;BME280;46899;47.542;19.082;2023-05-02T11:24:40;100537.31;;;26.77;30.44
61014;BME280;46899;47.542;19.082;2023-05-02T11:27:43;100534.34;;;25.71;32.22
61014;BME280;46899;47.542;19.082;2023-05-02T11:30:47;100525.13;;;25.47;32.85
61014;BME280;46899;47.542;19.082;2023-05-02T11:36:58;100522.94;;;26.06;32.11
61014;BME280;46899;47.542;19.082;2023-05-02T11:40:12;100511.66;;;26.22;31.69
61014;BME280;46899;47.542;19.082;2023-05-02T11:43:16;100519.13;;;26.18;32.24
61014;BME280;46899;47.542;19.082;2023-05-02T11:46:19;100517.66;;;26.24;32.82
61014;BME280;46899;47.542;19.082;2023-05-02T11:49:22;100513.94;;;26.79;31.31
61014;BME280;46899;47.542;19.082;2023-05-02T11:52:25;100511.87;;;26.11;31.86
61014;BME280;46899;47.542;19.082;2023-05-02T11:55:28;100507.63;;;26.08;32.08
61014;BME280;46899;47.542;19.082;2023-05-02T11:58:31;100508.31;;;26.82;31.84
61014;BME280;46899;47.542;19.082;2023-05-02T12:01:35;100496.94;;;26.80;30.84
61014;BME280;46899;47.542;19.082;2023-05-02T12:04:42;100494.41;;;26.79;30.95
61014;BME280;46899;47.542;19.082;2023-05-02T12:07:45;100505.50;;;26.39;31.86
61014;BME280;46899;47.542;19.082;2023-05-02T12:10:51;100501.63;;;25.79;32.79
61014;BME280;46899;47.542;19.082;2023-05-02T12:13:53;100498.22;;;26.14;32.84
61014;BME280;46899;47.542;19.082;2023-05-02T12:16:57;100487.66;;;26.57;32.10
61014;BME280;46899;47.542;19.082;2023-05-02T12:19:59;100483.78;;;26.69;32.14
61014;BME280;46899;47.542;19.082;2023-05-02T12:23:04;100482.19;;;26.76;31.74
61014;BME280;46899;47.542;19.082;2023-05-02T12:26:20;100482.41;;;26.65;31.83
61014;BME280;46899;47.542;19.082;2023-05-02T12:29:36;100484.03;;;25.86;32.01
61014;BME280;46899;47.542;19.082;2023-05-02T12:32:39;100484.25;;;25.65;31.96
61014;BME280;46899;47.542;19.082;2023-05-02T12:35:46;100487.13;;;25.45;31.65
61014;BME280;46899;47.542;19.082;2023-05-02T12:38:50;100489.25;;;25.78;31.24
61014;BME280;46899;47.542;19.082;2023-05-02T12:41:55;100483.69;;;25.71;30.59
61014;BME280;46899;47.542;19.082;2023-05-02T12:44:59;100484.28;;;25.93;29.69
61014;BME280;46899;47.542;19.082;2023-05-02T12:48:24;100477.13;;;26.38;29.20
61014;BME280;46899;47.542;19.082;2023-05-02T12:51:27;100478.38;;;26.43;28.69
61014;BME280;46899;47.542;19.082;2023-05-02T12:54:30;100474.41;;;27.00;28.63
61014;BME280;46899;47.542;19.082;2023-05-02T12:57:32;100478.97;;;26.55;28.52
61014;BME280;46899;47.542;19.082;2023-05-02T13:00:36;100472.62;;;26.38;28.41
61014;BME280;46899;47.542;19.082;2023-05-02T13:03:39;100470.56;;;26.05;29.50
61014;BME280;46899;47.542;19.082;2023-05-02T13:06:42;100466.56;;;26.28;29.03
61014;BME280;46899;47.542;19.082;2023-05-02T13:09:48;100467.09;;;26.05;28.91
61014;BME280;46899;47.542;19.082;2023-05-02T13:12:51;100467.06;;;26.32;29.87
61014;BME280;46899;47.542;19.082;2023-05-02T13:15:54;100459.91;;;26.05;28.87
61014;BME280;46899;47.542;19.082;2023-05-02T13:18:57;100465.16;;;25.97;29.90
61014;BME280;46899;47.542;19.082;2023-05-02T13:21:59;100459.97;;;25.68;30.12
61014;BME280;46899;47.542;19.082;2023-05-02T13:25:03;100450.97;;;25.23;31.00
61014;BME280;46899;47.542;19.082;2023-05-02T13:28:06;100457.63;;;25.00;31.39
61014;BME280;46899;47.542;19.082;2023-05-02T13:31:08;100457.50;;;24.73;31.58
61014;BME280;46899;47.542;19.082;2023-05-02T13:34:11;100453.84;;;24.74;31.98
61014;BME280;46899;47.542;19.082;2023-05-02T13:37:14;100446.56;;;24.57;32.49
61014;BME280;46899;47.542;19.082;2023-05-02T13:40:16;100449.78;;;24.31;32.94
61014;BME280;46899;47.542;19.082;2023-05-02T13:43:19;100448.94;;;24.40;33.67
61014;BME280;46899;47.542;19.082;2023-05-02T13:46:22;100444.03;;;24.45;32.86
61014;BME280;46899;47.542;19.082;2023-05-02T13:49:25;100452.44;;;24.31;32.55
61014;BME280;46899;47.542;19.082;2023-05-02T13:52:28;100438.88;;;24.34;32.49
61014;BME280;46899;47.542;19.082;2023-05-02T13:55:31;100448.09;;;24.21;32.43
61014;BME280;46899;47.542;19.082;2023-05-02T13:58:33;100445.84;;;24.45;32.45
61014;BME280;46899;47.542;19.082;2023-05-02T14:01:36;100454.84;;;24.34;32.55
61014;BME280;46899;47.542;19.082;2023-05-02T14:04:42;100446.28;;;24.12;32.88
61014;BME280;46899;47.542;19.082;2023-05-02T14:07:44;100449.22;;;24.18;32.87
61014;BME280;46899;47.542;19.082;2023-05-02T14:10:48;100444.44;;;23.72;33.41
61014;BME280;46899;47.542;19.082;2023-05-02T14:13:50;100450.00;;;23.60;34.08
61014;BME280;46899;47.542;19.082;2023-05-02T14:16:52;100449.53;;;23.25;35.99
61014;BME280;46899;47.542;19.082;2023-05-02T14:19:55;100445.16;;;22.93;37.33
61014;BME280;46899;47.542;19.082;2023-05-02T14:22:58;100449.00;;;22.89;37.59
61014;BME280;46899;47.542;19.082;2023-05-02T14:26:00;100445.91;;;23.05;36.14
61014;BME280;46899;47.542;19.082;2023-05-02T14:29:03;100444.41;;;23.12;36.87
61014;BME280;46899;47.542;19.082;2023-05-02T14:32:06;100447.19;;;23.10;37.17
61014;BME280;46899;47.542;19.082;2023-05-02T14:35:09;100447.78;;;23.35;37.31
61014;BME280;46899;47.542;19.082;2023-05-02T14:38:11;100441.16;;;23.50;36.24
61014;BME280;46899;47.542;19.082;2023-05-02T14:41:14;100449.12;;;23.50;35.01
61014;BME280;46899;47.542;19.082;2023-05-02T14:44:17;100448.56;;;23.56;33.29
61014;BME280;46899;47.542;19.082;2023-05-02T14:47:19;100437.72;;;23.68;33.16
61014;BME280;46899;47.542;19.082;2023-05-02T14:50:22;100445.56;;;23.70;33.28
61014;BME280;46899;47.542;19.082;2023-05-02T14:53:25;100448.88;;;23.62;33.46
61014;BME280;46899;47.542;19.082;2023-05-02T14:56:28;100450.00;;;23.60;33.63
61014;BME280;46899;47.542;19.082;2023-05-02T14:59:30;100448.31;;;23.59;33.70
61014;BME280;46899;47.542;19.082;2023-05-02T15:02:33;100450.37;;;23.55;33.84
61014;BME280;46899;47.542;19.082;2023-05-02T15:05:36;100446.25;;;23.72;33.93
61014;BME280;46899;47.542;19.082;2023-05-02T15:08:38;100444.88;;;23.77;34.13
61014;BME280;46899;47.542;19.082;2023-05-02T15:11:42;100436.66;;;23.80;34.04
61014;BME280;46899;47.542;19.082;2023-05-02T15:14:45;100450.97;;;23.59;34.38
61014;BME280;46899;47.542;19.082;2023-05-02T15:17:47;100450.37;;;23.55;34.00
61014;BME280;46899;47.542;19.082;2023-05-02T15:20:50;100440.31;;;23.49;34.20
61014;BME280;46899;47.542;19.082;2023-05-02T15:23:53;100449.94;;;23.41;34.30
61014;BME280;46899;47.542;19.082;2023-05-02T15:26:55;100444.22;;;23.25;34.85
61014;BME280;46899;47.542;19.082;2023-05-02T15:29:58;100445.97;;;23.14;35.48
61014;BME280;46899;47.542;19.082;2023-05-02T15:33:01;100441.22;;;23.18;35.33
61014;BME280;46899;47.542;19.082;2023-05-02T15:36:04;100438.50;;;23.08;35.99
61014;BME280;46899;47.542;19.082;2023-05-02T15:39:06;100445.22;;;23.03;35.87
61014;BME280;46899;47.542;19.082;2023-05-02T15:42:09;100444.28;;;23.13;34.77
61014;BME280;46899;47.542;19.082;2023-05-02T15:45:12;100440.22;;;23.09;34.88
61014;BME280;46899;47.542;19.082;2023-05-02T15:48:15;100443.97;;;23.07;35.85
61014;BME280;46899;47.542;19.082;2023-05-02T15:51:17;100434.63;;;22.92;35.01
61014;BME280;46899;47.542;19.082;2023-05-02T15:54:20;100435.03;;;22.87;35.41
61014;BME280;46899;47.542;19.082;2023-05-02T15:57:22;100436.91;;;22.76;35.78
61014;BME280;46899;47.542;19.082;2023-05-02T16:00:25;100432.00;;;22.71;36.03
61014;BME280;46899;47.542;19.082;2023-05-02T16:03:28;100436.72;;;22.68;35.63
61014;BME280;46899;47.542;19.082;2023-05-02T16:06:32;100430.91;;;22.74;36.00
61014;BME280;46899;47.542;19.082;2023-05-02T16:09:35;100435.09;;;22.76;36.73
61014;BME280;46899;47.542;19.082;2023-05-02T16:12:38;100426.44;;;22.74;36.91
61014;BME280;46899;47.542;19.082;2023-05-02T16:15:40;100431.53;;;22.66;35.95
61014;BME280;46899;47.542;19.082;2023-05-02T16:18:42;100426.22;;;22.66;35.90
61014;BME280;46899;47.542;19.082;2023-05-02T16:21:45;100424.63;;;22.75;36.68
61014;BME280;46899;47.542;19.082;2023-05-02T16:24:48;100429.59;;;22.68;36.20
61014;BME280;46899;47.542;19.082;2023-05-02T16:27:51;100427.34;;;22.53;36.40
61014;BME280;46899;47.542;19.082;2023-05-02T16:30:53;100432.41;;;22.56;35.80
61014;BME280;46899;47.542;19.082;2023-05-02T16:33:56;100431.81;;;22.52;36.06
61014;BME280;46899;47.542;19.082;2023-05-02T16:36:59;100426.87;;;22.47;35.26
61014;BME280;46899;47.542;19.082;2023-05-02T16:40:08;100428.34;;;22.52;35.63